KELK/ELK METAR and TAF weather

Enter ICAO airport designator
Station Type Date Time Source
KELK METAR 2018/07/21 22:55 UTC NOAA

KELK 212255Z AUTO 07007KT 10SM CLR 38/17 A2995 RMK AO2 T03820174


Station Type Date Time Source
KELK Decoded METAR 2018/07/21 22:55 UTC NOAA

Station name not available
Jul 21, 2018 - 06:55 PM EDT / 2018.07.21 2255 UTC
Wind: from the ENE (070 degrees) at 8 MPH (7 KT):0
Visibility: 10 mile(s):0
Sky conditions: clear
Temperature: 100.8 F (38.2 C)
Heat index: 103.1 F (39.5 C):1
Dew Point: 63.3 F (17.4 C)
Relative Humidity: 29%
Pressure (altimeter): 29.95 in. Hg (1014 hPa)
ob: KELK 212255Z AUTO 07007KT 10SM CLR 38/17 A2995 RMK AO2 T03820174
cycle: 23

Station Type Date Time Source
KELK TAF UTC NOAA

Error!


Example: see airport list